ADDS METAR Data INFO
IDs: Format: Raw Decoded Include TAF

Data at: 0205 UTC 21 Apr 2018

KE11 210155Z AUTO 17014G19KT 10SM OVC025 17/12 A2989 RMK AO2 T01720115
KE11 210135Z AUTO 17017G25KT 7SM OVC025 18/12 A2986 RMK AO2 T01750115
KE11 210115Z AUTO 18018G27KT 5SM HZ OVC029 18/11 A2986 RMK AO2 T01800114
KE11 210055Z AUTO 18014G19KT 7SM BKN029 OVC090 19/11 A2985 RMK AO2 T01880113
KE11 210035Z AUTO 17020G28KT 7SM BKN027 OVC090 19/11 A2984 RMK AO2 T01930112
KE11 210015Z AUTO 16025G34KT 7SM OVC027 20/11 A2980 RMK AO2 T02000110
KE11 202355Z AUTO 16025G36KT 5SM HZ OVC027 21/11 A2979 RMK AO2 T02050110 10230 20200
KE11 202335Z AUTO 16025G34KT 7SM BKN029 BKN034 22/11 A2978 RMK AO2 T02200107
KE11 202315Z AUTO 15027G33KT 7SM CLR 22/10 A2979 RMK AO2 T02240104
KE11 202255Z AUTO 15025G34KT 7SM CLR 22/10 A2979 RMK AO2 T02240102
KE11 202235Z AUTO 15020G35KT 7SM SCT031 SCT037 23/10 A2980 RMK AO2 T02280100
KE11 202215Z AUTO 16026G34KT 7SM SCT029 SCT037 22/10 A2980 RMK AO2 T02240098
KE11 202155Z AUTO 16024G35KT 7SM SCT030 SCT036 22/10 A2982 RMK AO2 T02220096
KE11 202135Z AUTO 15023G35KT 7SM BKN030 OVC036 21/10 A2984 RMK AO2 T02140095
KE11 202115Z AUTO 15020G35KT 7SM BKN034 BKN040 22/10 A2985 RMK AO2 T02150095
KE11 202055Z AUTO 15023G35KT 10SM SCT035 21/10 A2988 RMK AO2 LTG DSNT N T02130097
KE11 202035Z AUTO 16024G33KT 7SM CLR 21/10 A2989 RMK AO2 LTG DSNT N T02110098
KE11 202015Z AUTO 16025G36KT 7SM CLR 21/10 A2989 RMK AO2 T02090096
KE11 201955Z AUTO 16026G34KT 7SM SCT030 SCT036 21/09 A2990 RMK AO2 T02140091
KE11 201935Z AUTO 15023G38KT 5SM HZ SCT030 SCT036 22/09 A2990 RMK AO2 T02150085
KE11 201915Z AUTO 15024G36KT 7SM CLR 22/08 A2991 RMK AO2 T02160075
KE11 201855Z AUTO 15023G34KT 7SM CLR 21/07 A2993 RMK AO2 LTG DSNT N T02140068
KE11 201835Z AUTO 16025G35KT 7SM SCT031 SCT044 21/07 A2994 RMK AO2 T02110065
KE11 201815Z AUTO 15024G32KT 7SM SCT030 BKN036 21/06 A2996 RMK AO2 T02050058
KE11 201755Z AUTO 16022G31KT 7SM BKN032 20/06 A2998 RMK AO2 T02040056 10205 20117
KE11 201735Z AUTO 16025G36KT 7SM BKN030 BKN036 20/06 A3000 RMK AO2 T02030056
KE11 201715Z AUTO 16023G30KT 7SM BKN030 OVC036 20/05 A3001 RMK AO2 T01980050
KE11 201655Z AUTO 15022G33KT 7SM BKN033 19/05 A3001 RMK AO2 T01890046
KE11 201635Z AUTO 16023G33KT 7SM SCT035 19/05 A3001 RMK AO2 LTG DSNT N T01890045
KE11 201615Z AUTO 14022G30KT 10SM SCT033 18/03 A3002 RMK AO2 T01810029
KE11 201555Z AUTO 15024G32KT 10SM CLR 17/02 A3002 RMK AO2 T01710022
KE11 201535Z AUTO 14019G26KT 10SM CLR 16/02 A3003 RMK AO2 T01620016
KE11 201515Z AUTO 15020G28KT 10SM CLR 16/01 A3003 RMK AO2 T01580014
KE11 201455Z AUTO 15020G30KT 10SM CLR 15/01 A3004 RMK AO2 T01530009
KE11 201435Z AUTO 14017G29KT 10SM SCT028 15/01 A3004 RMK AO2 T01450006
KE11 201415Z AUTO 15019G26KT 10SM OVC028 14/01 A3005 RMK AO2 T01430005
KE11 201355Z AUTO 14017G26KT 10SM OVC030 14/00 A3005 RMK AO2 T01360001
KE11 201335Z AUTO 14015G24KT 10SM OVC030 13/00 A3007 RMK AO2 T01320000
KE11 201315Z AUTO 15018G27KT 10SM OVC030 13/00 A3007 RMK AO2 T01300000
KE11 201255Z AUTO 14017G25KT 10SM OVC030 13/00 A3007 RMK AO2 T01300000
KE11 201235Z AUTO 15018G26KT 10SM OVC030 13/00 A3007 RMK AO2 T01300000
KE11 201215Z AUTO 14018G25KT 10SM OVC030 13/00 A3006 RMK AO2 T01300000
KE11 201155Z AUTO 13010G15KT 10SM SCT030 12/00 A3006 RMK AO2 T01151005 10153 20115
KE11 201135Z AUTO 14010KT 10SM CLR 12/M01 A3005 RMK AO2 T01151010
KE11 201115Z AUTO 13012G16KT 10SM CLR 12/M01 A3005 RMK AO2 T01161013
KE11 201055Z AUTO 13011KT 10SM CLR 12/M01 A3004 RMK AO2 T01161015
KE11 201035Z AUTO 13012G17KT 10SM CLR 12/M02 A3004 RMK AO2 T01201016
KE11 201015Z AUTO 13012G17KT 10SM CLR 12/M02 A3005 RMK AO2 T01231016
KE11 200955Z AUTO 13011G17KT 10SM CLR 13/M02 A3005 RMK AO2 T01251022
KE11 200935Z AUTO 12011G16KT 10SM CLR 13/M02 A3005 RMK AO2 T01251024
KE11 200915Z AUTO 13010KT 10SM CLR 13/M02 A3007 RMK AO2 T01301023
KE11 200855Z AUTO 13013G20KT 10SM SCT044 14/M02 A3007 RMK AO2 T01361017
KE11 200835Z AUTO 12011G15KT 10SM OVC044 14/M02 A3009 RMK AO2 T01421016
KE11 200815Z AUTO 12012G16KT 10SM OVC044 14/M02 A3010 RMK AO2 T01421018
KE11 200755Z AUTO 12011KT 10SM OVC046 14/M02 A3011 RMK AO2 T01421020
KE11 200735Z AUTO 13012KT 10SM BKN050 14/M02 A3012 RMK AO2 T01401020
KE11 200715Z AUTO 12009KT 10SM OVC050 15/M02 A3013 RMK AO2 T01451025
KE11 200655Z AUTO 13013G16KT 10SM OVC050 15/M03 A3014 RMK AO2 T01461029
KE11 200635Z AUTO 13012KT 10SM OVC055 15/M03 A3016 RMK AO2 T01501031
KE11 200615Z AUTO 13010KT 10SM OVC055 15/M03 A3017 RMK AO2 T01521035
KE11 200555Z AUTO 13011G15KT 10SM OVC055 15/M04 A3018 RMK AO2 T01531036 10221 20153
KE11 200535Z AUTO 13012KT 10SM SCT055 16/M04 A3017 RMK AO2 T01551038
KE11 200515Z AUTO 13011G19KT 10SM CLR 16/M04 A3017 RMK AO2 T01561040
KE11 200455Z AUTO 13013G18KT 10SM SCT060 16/M04 A3017 RMK AO2 T01601042 402360058
KE11 200435Z AUTO 13014G20KT 10SM BKN060 16/M04 A3017 RMK AO2 T01621044
KE11 200415Z AUTO 13016G20KT 10SM OVC060 17/M04 A3016 RMK AO2 T01661045
KE11 200355Z AUTO 13015G23KT 10SM OVC060 17/M04 A3017 RMK AO2 T01721045
KE11 200335Z AUTO 13014G20KT 10SM OVC060 18/M05 A3017 RMK AO2 T01751047
KE11 200315Z AUTO 13013G20KT 10SM OVC060 18/M05 A3016 RMK AO2 T01761052
KE11 200255Z AUTO 13012G21KT 10SM OVC060 18/M06 A3016 RMK AO2 T01781057
KE11 200235Z AUTO 13011G16KT 10SM BKN060 18/M06 A3016 RMK AO2 T01781058
KE11 200215Z AUTO 12012G19KT 10SM SCT060 18/M06 A3015 RMK AO2 T01841060
KE11 200155Z AUTO 12014G20KT 10SM OVC060 19/M06 A3014 RMK AO2 T01901057
KE11 200135Z AUTO 13013G19KT 10SM BKN060 20/M06 A3015 RMK AO2 T01971058
KE11 200115Z AUTO 13013G21KT 10SM SCT060 20/M06 A3014 RMK AO2 T02001056
KE11 200055Z AUTO 12016G21KT 10SM CLR 21/M06 A3015 RMK AO2 T02061057
KE11 200035Z AUTO 13018G26KT 10SM CLR 22/M06 A3015 RMK AO2 T02151057
KE11 200015Z AUTO 13016G27KT 10SM CLR 22/M06 A3015 RMK AO2 T02191056
KE11 192355Z AUTO 12019G28KT 10SM CLR 22/M06 A3015 RMK AO2 T02211056 10236 20191
KE11 192335Z AUTO 12016G29KT 10SM CLR 23/M06 A3016 RMK AO2 T02251056
KE11 192315Z AUTO 13019G28KT 10SM CLR 23/M06 A3016 RMK AO2 T02281057
KE11 192255Z AUTO 12021G27KT 10SM CLR 23/M06 A3017 RMK AO2 T02301056
KE11 192235Z AUTO 13017G27KT 10SM CLR 23/M06 A3018 RMK AO2 T02321060
KE11 192215Z AUTO 14018G26KT 10SM SCT065 23/M06 A3019 RMK AO2 T02321061
KE11 192155Z AUTO 14018G26KT 10SM SCT065 23/M06 A3019 RMK AO2 T02311064
KE11 192135Z AUTO 13013G25KT 10SM CLR 23/M06 A3020 RMK AO2 T02321064
KE11 192115Z AUTO 13019G26KT 10SM CLR 23/M07 A3021 RMK AO2 T02271066
KE11 192055Z AUTO 14016G25KT 10SM CLR 23/M07 A3023 RMK AO2 T02251069
KE11 192035Z AUTO 13018G24KT 10SM CLR 23/M06 A3024 RMK AO2 T02261061
KE11 192015Z AUTO 13017G25KT 10SM SCT060 23/M06 A3025 RMK AO2 T02281061
KE11 191955Z AUTO 12014G24KT 10SM BKN060 22/M07 A3028 RMK AO2 T02151067
KE11 191935Z AUTO 14016G26KT 10SM BKN060 21/M06 A3028 RMK AO2 T02131063
KE11 191915Z AUTO 14013G21KT 10SM SCT060 22/M06 A3030 RMK AO2 T02181059
KE11 191855Z AUTO 13015G23KT 10SM SCT060 22/M06 A3031 RMK AO2 T02161058
KE11 191835Z AUTO 12012G25KT 10SM OVC060 20/M06 A3032 RMK AO2 T02031062
KE11 191815Z AUTO 13013G24KT 10SM OVC060 21/M06 A3033 RMK AO2 T02081064
KE11 191755Z AUTO 12014G20KT 10SM OVC060 19/M06 A3034 RMK AO2 T01921063 10197 20058
KE11 191735Z AUTO 13019G23KT 10SM OVC060 19/M06 A3034 RMK AO2 T01941062
KE11 191715Z AUTO 13016G20KT 10SM OVC060 19/M06 A3035 RMK AO2 T01851056
KE11 191655Z AUTO 14013G22KT 10SM OVC050 18/M06 A3035 RMK AO2 T01781060
KE11 191635Z AUTO 13015G21KT 10SM BKN050 18/M06 A3035 RMK AO2 T01781060
KE11 191615Z AUTO 12014G21KT 10SM CLR 17/M06 A3035 RMK AO2 T01711057
KE11 191555Z AUTO 12017G22KT 10SM SCT060 16/M06 A3035 RMK AO2 T01571057
KE11 191535Z AUTO 11012G18KT 10SM BKN060 15/M06 A3035 RMK AO2 T01511059
KE11 191515Z AUTO 10015G18KT 10SM BKN050 15/M06 A3035 RMK AO2 T01531057
KE11 191455Z AUTO 09013KT 10SM BKN050 14/M05 A3036 RMK AO2 T01411055
KE11 191435Z AUTO 09013KT 10SM BKN050 12/M06 A3034 RMK AO2 T01241059
KE11 191415Z AUTO 09013KT 10SM SCT050 11/M06 A3033 RMK AO2 T01131061